Pahrump, Nevada Weather observations

Data are for observation ending at time listed.
 Day   Time    Ave.   Ave.  Ave.  Vector   Max.   Stn.    Total    Solar   Ave.  
  of    of     Air    Rel.  Wind   Wind    Wind   Baro.  Precip.   Rad.    Soil  
Year   Day     Temp.  Hum.  Speed  Dir.    Gust   Pres.                    Temp. 
2015   (PST)    F      %     mph   deg.    mph     mb.     in.     W/m2     F   
------------------------------------------------------------------------------
 243   18:40   91.5    11    0.1   171      0.1   918.9    0.00       0    93.5
 243   18:50   91.8    11    0.1   163      0.1   919.0    0.00       0    93.3
 243   19:00   91.3    11    0.1   168      0.1   919.1    0.00       0    93.1
 243   19:10   90.8    11    0.1   162      0.1   919.2    0.00       0    92.9
 243   19:20   90.1    11    0.1   146      0.1   919.3    0.00       0    92.8
 243   19:30   89.3    12    0.1   148      0.1   919.4    0.00       0    92.7
 243   19:40   89.0    12    0.1   147      0.1   919.5    0.00       0    92.5
 243   19:50   88.3    12    0.1   146      0.1   919.6    0.00       0    92.4
 243   20:00   88.4    11    0.1   158      0.1   919.6    0.00       0    92.2
 243   20:10   88.0    11    0.1   141      0.1   919.7    0.00       0    92.1
 243   20:20   87.8    11    0.1   149      0.1   919.7    0.00       0    91.9
 243   20:30   87.8    11    0.1   145      0.1   919.8    0.00       0    91.8
 243   20:40   87.7    11    0.1   142      0.1   919.8    0.00       0    91.7
 243   20:50   88.2    11    0.1   153      0.1   919.8    0.00       0    91.5
 243   21:00   88.2    12    0.1   152      0.1   919.8    0.00       0    91.4
 243   21:10   87.9    12    0.1   151      0.1   919.8    0.00       0    91.3
 243   21:20   87.2    12    0.1   130      0.1   919.8    0.00       0    91.2
 243   21:30   86.8    12    0.1   129      0.1   919.8    0.00       0    91.0
 243   21:40   86.8    12    0.1   123      0.1   919.8    0.00       0    91.0
 243   21:50   85.7    12    0.0   112      0.1   919.8    0.00       0    90.8
 243   22:00   84.7    12    0.0    97      0.1   919.8    0.00       0    90.7
 243   22:10   84.4    12    0.0   102      0.1   919.7    0.00       0    90.6
 243   22:20   84.2    12    0.0   101      0.1   919.7    0.00       0    90.5
 243   22:30   84.0    12    0.0    96      0.1   919.6    0.00       0    90.4
 243   22:40   83.9    12    0.0    94      0.1   919.6    0.00       0    90.2
 243   22:50   83.8    13    0.1    75      0.1   919.6    0.00       0    90.1
 243   23:00   80.8    15    0.1   336      0.1   919.6    0.00       0    90.0
 243   23:10   78.2    16    0.1   271      3.3   919.6    0.00       0    89.9
 243   23:20   76.9    18    0.1   287      0.1   919.4    0.00       0    89.8
 243   23:30   76.2    17    0.1   244      0.1   919.3    0.00       0    89.6
 243   23:40   75.5    18    0.1   225      0.1   919.3    0.00       0    89.5
 243   23:50   75.6    17    0.0   201      0.1   919.1    0.00       0    89.3
 244    0:00   76.8    16    0.0   132      0.1   919.1    0.00       0    89.2
 244    0:10   77.1    16    0.0     0      0.0   919.1    0.00       0    89.0
 244    0:20   77.1    16    0.0   155      0.1   919.1    0.00       0    88.8
 244    0:30   77.9    15    0.0     0      0.0   919.1    0.00       0    88.7
 244    0:40   79.2    14    0.0     0      0.0   919.0    0.00       0    88.6
 244    0:50   79.6    14    0.0   265      0.1   919.1    0.00       0    88.4
 244    1:00   77.4    16    0.1   273      0.1   919.2    0.00       0    88.3
 244    1:10   74.9    18    0.1   282      0.1   919.2    0.00       0    88.1
 244    1:20   73.6    19    0.1   330      0.1   919.1    0.00       0    88.0
 244    1:30   72.9    20    0.0   354      0.1   918.9    0.00       0    87.9
 244    1:40   73.4    19    0.0   314      0.1   918.9    0.00       0    87.8
 244    1:50   73.9    18    0.0   357      0.1   918.8    0.00       0    87.7
 244    2:00   73.9    19    0.0   304      0.1   918.8    0.00       0    87.5
 244    2:10   73.6    20    0.0   314      0.1   918.7    0.00       0    87.4
 244    2:20   73.7    18    0.0   281      0.1   918.6    0.00       0    87.2
 244    2:30   73.0    22    0.1   279      0.1   918.8    0.00       0    87.1
 244    2:40   71.7    22    0.1   295      0.1   918.8    0.00       0    87.0
 244    2:50   71.4    21    0.0   338      0.1   918.8    0.00       0    86.8
 244    3:00   71.9    20    0.0   332      0.1   918.8    0.00       0    86.7
 244    3:10   71.9    19    0.0     0      0.0   918.7    0.00       0    86.6
 244    3:20   71.4    21    0.1   261      0.1   918.8    0.00       0    86.5
 244    3:30   70.9    22    0.0   278      0.1   918.8    0.00       0    86.3
 244    3:40   71.2    21    0.0   227      0.1   918.8    0.00       0    86.2
 244    3:50   71.7    19    0.0     0      0.0   918.8    0.00       0    86.1
 244    4:00   72.2    19    0.0     0      0.0   918.8    0.00       0    85.9
 244    4:10   72.4    19    0.0     0      0.0   918.8    0.00       0    85.8
 244    4:20   72.2    19    0.0   331      0.1   918.8    0.00       0    85.7
 244    4:30   71.8    20    0.0   358      0.1   918.9    0.00       0    85.6
 244    4:40   71.9    22    0.0   347      0.1   918.9    0.00       0    85.5
 244    4:50   71.5    22    0.1   313      0.1   918.9    0.00       0    85.4
 244    5:00   71.1    22    0.1   303      0.1   918.9    0.00       0    85.3
 244    5:10   69.3    24    0.1   274      0.1   919.0    0.00       2    85.2
 244    5:20   68.0    24    0.1   262      0.1   919.1    0.00       2    85.0
 244    5:30   68.0    26    0.1   271      0.1   919.1    0.00       1    85.0
 244    5:40   68.5    25    0.0   322      0.1   919.2    0.00       3    84.8
 244    5:50   69.3    24    0.0   289      0.1   919.4    0.00       2    84.7
 244    6:00   71.3    22    0.0   278      0.1   919.5    0.00       2    84.6
 244    6:10   73.2    23    0.1   275      0.1   919.7    0.00       1    84.5
 244    6:20   74.3    23    0.1   261      0.1   920.0    0.00       4    84.5
 244    6:30   76.3    23    0.1   272      0.1   920.2    0.00      10    84.4
 244    6:40   76.3    23    0.1   287      0.1   920.6    0.00       1    84.4
 244    6:50   75.1    23    0.1   313      0.1   920.9    0.00      25    84.5
 244    7:00   76.2    22    0.1   318      0.1   921.2    0.00     133    84.6
 244    7:10   77.2    23    0.1   319      0.1   921.4    0.00     143    84.8
 244    7:20   77.9    23    0.1   310      0.1   921.7    0.00      15    85.0
 244    7:30   78.3    22    0.1   317      0.1   922.0    0.00       6    85.3
 244    7:40   78.9    22    0.1   323      0.1   922.1    0.00      68    85.6
 244    7:50   80.7    21    0.1   317      0.1   922.3    0.00     342    85.9
 244    8:00   82.0    20    0.1   304      0.1   922.5    0.00     183    86.3
 244    8:10   83.1    20    0.1   310      0.1   922.7    0.00       0    86.6
 244    8:20   85.6    18    0.1   214      0.1   922.9    0.00       0    87.1
 244    8:30   87.7    15    5.4   183     12.5   923.1    0.00       0    87.5
 244    8:40   88.0    14    6.3   174     14.8   923.2    0.00       0    87.9
 244    8:50   88.3    14    4.2   188     15.9   923.5    0.00       0    88.3
 244    9:00   88.8    14    9.0   182     14.9   923.6    0.00       0    88.7
 244    9:10   89.5    14    7.7   193     12.6   923.7    0.00       0    89.0
 244    9:20   89.6    14    7.9   189     14.2   923.8    0.00       0    89.1
 244    9:30   89.9    14    9.3   195     16.8   923.9    0.00       0    89.2
 244    9:40   90.2    14    9.9   184     16.0   923.9    0.00       0    89.2
 244    9:50   90.9    14    4.3   188     13.4   924.0    0.00       0    89.2
 244   10:00   91.1    13    0.1   179      0.2   924.1    0.00       2    89.3
 244   10:10   91.6    13    0.1   186      0.1   924.1    0.00     172    89.2
 244   10:20   91.8    13    0.1   180      0.1   924.2    0.00     680    89.2
 244   10:30   92.1    12    0.1   167      0.2   924.2    0.00     883    89.2
 244   10:40   92.2    13    0.5   177     12.1   924.1    0.00     895    89.3
 244   10:50   92.8    13    6.4   187     12.6   923.9    0.00     821    89.3
 244   11:00   92.8    13    0.9   200     21.9   923.9    0.00      30    89.3
 244   11:10   92.7    13    0.1   188      0.1   923.8    0.00       0    89.3
 244   11:20   94.2    13    0.1   194      0.1   923.6    0.00       0    89.3
 244   11:30   94.6    13    0.1   205      0.1   923.6    0.00       2    89.5
 244   11:40   94.7    13    0.1   200      0.1   923.7    0.00       0    89.8
 244   11:50   94.4    13    0.1   209      0.1   923.6    0.00       0    90.2
 244   12:00   95.4    13    0.1   184      0.1   923.7    0.00       0    90.6
 244   12:10   94.7    14    3.1   183     20.5   923.7    0.00       0    91.2
 244   12:20   95.9    13    5.0   186     15.1   923.6    0.00       0    91.8
 244   12:30   95.9    14    7.3   189     14.6   923.5    0.00       0    92.3
 244   12:40   95.1    14    7.1   169     12.3   923.6    0.00       0    92.9
 244   12:50   95.5    15    7.4   188     15.6   923.5    0.00       0    93.4
 244   13:00   95.7    16    9.9   164     18.0   923.3    0.00       0    94.0
 244   13:10   96.2    16    5.1   181     15.7   923.2    0.00       0    94.4
 244   13:20   95.9    17    4.1   175     18.6   923.0    0.00       0    94.9
 244   13:30   95.9    18    0.1   228      0.1   922.8    0.00       0    95.3
 244   13:40   96.0    16    0.7   200     18.4   922.7    0.00       0    95.6
 244   13:50   96.2    16    0.3   248      7.5   922.5    0.00       0    95.9
 244   14:00   95.8    16    5.7   219     15.8   922.4    0.00       0    96.2
 244   14:10   95.9    16    6.8   229     13.5   922.2    0.00       0    96.4
 244   14:20   97.0    15    4.5   213     12.5   922.1    0.00       0    96.7
 244   14:30   96.1    16    5.7   209     14.5   921.9    0.00       0    96.7
 244   14:40   95.3    17    0.1   238      0.1   921.7    0.00       0    96.6
 244   14:50   95.4    18    0.1   253      0.1   921.5    0.00       0    96.5
 244   15:00   95.1    18    4.3   245     15.6   921.4    0.00       0    96.3
 244   15:10   94.8    18    6.1   244     14.4   921.2    0.00       0    96.1
 244   15:20   94.9    18    4.5   258     11.6   921.1    0.00       0    95.9
 244   15:30   95.0    17    5.0   245     14.0   921.1    0.00       0    95.6
 244   15:40   94.9    17    6.3   245     14.9   920.9    0.00       0    95.4
 244   15:50   94.5    18    4.9   264     12.9   920.8    0.00       1    95.2
 244   16:00   94.5    18    5.3   246     15.2   920.7    0.00       0    95.0
 244   16:10   94.7    17    3.6   245     11.2   920.7    0.00       0    94.9
 244   16:20   94.7    18    5.2   227     15.6   920.7    0.00       0    94.7
 244   16:30   94.8    16    7.6   193     13.9   920.7    0.00       0    94.5
 244   16:40   94.5    15    5.8   209     13.7   920.7    0.00       0    94.4
 244   16:50   94.0    18    5.3   219     14.1   920.7    0.00       0    94.3
 244   17:00   93.8    16    7.1   193     15.1   920.6    0.00       0    94.2
 244   17:10   93.3    18    5.8   209     11.2   920.6    0.00       0    94.0
 244   17:20   92.5    20    4.9   214     11.4   920.6    0.00       0    93.9
 244   17:30   92.5    20    6.7   194     12.1   920.5    0.00       0    93.8
 244   17:40   92.7    20    6.3   196     12.3   920.4    0.00       0    93.7
 244   17:50   92.5    20    6.0   199     11.7   920.4    0.00       0    93.5
 244   18:00   92.3    21    6.7   186     14.0   920.4    0.00       0    93.4
 244   18:10   92.2    21    6.1   189     15.3   920.4    0.00       1    93.3
 244   18:20   91.8    21    5.0   193      9.2   920.4    0.00       0    93.2
 244   18:30   91.5    21    5.9   186     10.4   920.5    0.00       0    93.1

Return to Pahrump, Nevada graphs page.


Western Regional Climate Center,wrcc@dri.edu